avis per tempestes more information blitzortung!


avis per Pluja more information rain snow radar


Visita la nostra xarxa de llocs de meteo:

Template documentation
and downloads

And another site



Thunderstorms From: 18-09-2018 09:00 Until: 19-09-2018 20:59 warning for: Thunderstorms Level: Yellow info button
Rain From: 18-09-2018 09:00 Until: 19-09-2018 20:59 warning for: Rain Level: Yellow info button

Pagina Historial Weather Underground text

Diari Resum Novembre 17, 2017 Unitats:  Imperial    Mètric   Tant
« Previous Dia
SegĂźent Dia »
Diari Setmana Mensual Anual Personalitzada
  Maxima: Minima: Media:
Temperatura: TemperatureC °F 3.5 °F 12.1 °F
Punt de rosada: DewpointC °F -3.6 °F 0.7 °F
Humitat: Humidity % 39 % 45 %
Wind Speed: WindSpeedKMH mph 0.0 mph 2.5 mph
RĂ fegues de vent: WindSpeedGustKMH mph - -
Vent:- - SSE
Pression baro: PressurehPa in 1017.8 in -
Precipitacions: 0.0 in    
Historical Graphs
 
 
Dades de taula per Novembre 17, 2017
Temps Temperatura Punt de rosada Pression baro Vent Wind Speed RĂ fegues de vent Humitat Rainfall Rate (Hourly)
TemperatureC °F DewpointC °F PressurehPa in Calm     Humidity % HourlyPrecipMM in
00:00 6.8 °F -1.6 °F 1020.9 in NNE 3.7 mph 3.7 mph 55 % 0.0 in
00:05 6.6 °F -1.8 °F 1020.9 in Calm     55 % 0.0 in
00:15 3.7 °F -3.6 °F 1019.9 in WNW 1.6 mph 3.2 mph 59 % 0.0 in
00:25 3.7 °F -3.6 °F 1019.9 in WNW 3.2 mph 3.2 mph 59 % 0.0 in
00:35 3.6 °F -3.4 °F 1019.9 in Calm   3.2 mph 60 % 0.0 in
00:45 3.6 °F -3.4 °F 1019.9 in Calm   3.2 mph 60 % 0.0 in
00:55 3.6 °F -3.4 °F 1019.9 in West 1.6 mph 3.2 mph 60 % 0.0 in
01:05 3.6 °F -3.4 °F 1019.9 in WSW 1.6 mph 3.2 mph 60 % 0.0 in
01:15 3.5 °F -3.6 °F 1019.9 in WSW 1.6 mph 3.2 mph 60 % 0.0 in
01:25 3.9 °F -3.4 °F 1019.9 in West 1.6 mph 3.2 mph 59 % 0.0 in
01:35 4.0 °F -3.3 °F 1019.9 in Calm   3.2 mph 59 % 0.0 in
01:45 3.8 °F -3.3 °F 1019.9 in Calm   3.2 mph 60 % 0.0 in
01:55 4.0 °F -3.3 °F 1019.9 in Calm   3.2 mph 59 % 0.0 in
02:05 4.1 °F -3.2 °F 1019.9 in Calm   3.2 mph 59 % 0.0 in
02:15 4.5 °F -2.8 °F 1019.9 in NW 1.6 mph   59 % 0.0 in
02:25 4.5 °F -2.8 °F 1018.8 in Calm   3.2 mph 59 % 0.0 in
02:35 4.7 °F -2.7 °F 1018.8 in West 3.2 mph 4.8 mph 59 % 0.0 in
02:45 5.1 °F -2.3 °F 1019.9 in WSW 1.6 mph 3.2 mph 59 % 0.0 in
02:55 5.7 °F -1.9 °F 1019.9 in WSW 1.6 mph 3.2 mph 58 % 0.0 in
03:05 7.0 °F -0.7 °F 1019.9 in Calm   1.6 mph 58 % 0.0 in
03:15 7.4 °F -0.6 °F 1019.9 in NW 1.6 mph 4.8 mph 57 % 0.0 in
03:25 7.7 °F -0.6 °F 1020.9 in NNE 1.6 mph 4.8 mph 56 % 0.0 in
03:35 8.0 °F -0.3 °F 1020.9 in NE 1.6 mph 4.8 mph 56 % 0.0 in
03:45 8.6 °F 0.1 °F 1019.9 in NE 1.6 mph 3.2 mph 55 % 0.0 in
03:55 8.9 °F 0.1 °F 1020.9 in NE 4.8 mph 4.8 mph 54 % 0.0 in
04:05 8.7 °F -0.1 °F 1020.9 in NE 1.6 mph 4.8 mph 54 % 0.0 in
04:15 9.2 °F 0.1 °F 1020.9 in NE 1.6 mph 3.2 mph 53 % 0.0 in
04:25 9.4 °F 0.3 °F 1020.9 in NNE 1.6 mph 4.8 mph 53 % 0.0 in
04:35 10.2 °F 0.8 °F 1020.9 in NNE 1.6 mph 3.2 mph 52 % 0.0 in
06:45 15.5 °F 4.2 °F 1019.9 in ESE 1.6 mph 3.2 mph 47 % 0.0 in
06:55 15.7 °F 4.7 °F 1019.9 in SE 1.6 mph 4.8 mph 48 % 0.0 in
07:45 16.4 °F 4.7 °F 1018.8 in NNE 1.6 mph 1.6 mph 46 % 0.0 in
07:55 16.5 °F 4.5 °F 1018.8 in NNE 3.2 mph 6.4 mph 45 % 0.0 in
10:37 10.6 °F 1.2 °F 1020.9 in NW 1.9 mph   52 % 0.0 in
10:38 10.6 °F 1.2 °F 1019.9 in NW 2.3 mph 2.3 mph 52 % 0.0 in
10:39 10.5 °F 1.1 °F 1019.9 in NW 3.7 mph 3.7 mph 52 % 0.0 in
10:44 10.7 °F 1.2 °F 1019.9 in North 1.9 mph 1.9 mph 52 % 0.0 in
10:49 11.2 °F 1.4 °F 1020.9 in NE 1.9 mph   51 % 0.0 in
10:54 11.3 °F 1.5 °F 1020.9 in ENE 4.2 mph 4.2 mph 51 % 0.0 in
10:59 11.3 °F 1.5 °F 1020.9 in NE 3.7 mph 3.7 mph 51 % 0.0 in
11:04 11.6 °F 1.8 °F 1020.9 in ENE 3.7 mph 3.7 mph 51 % 0.0 in
11:09 11.5 °F 1.7 °F 1020.9 in East 4.2 mph 4.2 mph 51 % 0.0 in
11:14 11.7 °F 1.9 °F 1020.9 in NE 3.7 mph 3.7 mph 51 % 0.0 in
11:19 12.1 °F 2.3 °F 1020.9 in NE 2.6 mph   51 % 0.0 in
11:24 11.9 °F 1.8 °F 1020.9 in East 3.7 mph 4.2 mph 50 % 0.0 in
11:29 12.1 °F 2.0 °F 1020.9 in ENE 3.7 mph 3.7 mph 50 % 0.0 in
11:34 12.4 °F 2.3 °F 1020.9 in ENE 3.7 mph 3.9 mph 50 % 0.0 in
11:39 12.5 °F 2.1 °F 1020.9 in ENE 3.7 mph 3.7 mph 49 % 0.0 in
11:44 12.8 °F 2.3 °F 1020.9 in SE 3.7 mph 3.7 mph 49 % 0.0 in
11:49 13.0 °F 2.5 °F 1019.9 in NNE 3.7 mph 3.7 mph 49 % 0.0 in
11:54 13.2 °F 2.7 °F 1019.9 in NE 3.7 mph 3.7 mph 49 % 0.0 in
11:59 13.4 °F 2.6 °F 1019.9 in ENE 5.6 mph 5.6 mph 48 % 0.0 in
12:04 13.5 °F 2.7 °F 1019.9 in ENE 3.7 mph 3.7 mph 48 % 0.0 in
12:09 13.8 °F 2.9 °F 1019.9 in NE 2.3 mph 2.3 mph 48 % 0.0 in
12:14 14.2 °F 3.3 °F 1019.9 in East 3.7 mph   48 % 0.0 in
12:19 14.7 °F 3.8 °F 1019.9 in WSW 1.9 mph   48 % 0.0 in
12:24 15.1 °F 4.2 °F 1019.9 in SE 3.7 mph 3.7 mph 48 % 0.0 in
12:29 15.0 °F 4.1 °F 1019.9 in ESE 4.2 mph 4.2 mph 48 % 0.0 in
12:58 16.4 °F 5.1 °F 1019.9 in Calm   1.8 mph 47 % 0.0 in
13:03 16.2 °F 4.9 °F 1019.9 in NE 3.7 mph 3.7 mph 47 % 0.0 in
13:08 16.2 °F 4.6 °F 1019.9 in NNE 5.8 mph 5.8 mph 46 % 0.0 in
13:13 16.3 °F 4.7 °F 1019.9 in NE 3.7 mph 3.7 mph 46 % 0.0 in
13:18 16.1 °F 4.4 °F 1019.9 in North 7.4 mph 7.4 mph 46 % 0.0 in
13:23 16.1 °F 4.4 °F 1019.9 in ENE 5.6 mph 5.6 mph 46 % 0.0 in
13:28 16.3 °F 4.7 °F 1019.9 in North 3.7 mph 3.7 mph 46 % 0.0 in
13:33 16.3 °F 4.7 °F 1018.8 in NNE 3.7 mph 3.7 mph 46 % 0.0 in
13:57 16.6 °F 4.6 °F 1018.8 in NE 3.7 mph 3.7 mph 45 % 0.0 in
14:02 16.7 °F 4.4 °F 1018.8 in ENE 5.6 mph 5.6 mph 44 % 0.0 in
14:07 16.8 °F 4.4 °F 1018.8 in NNE 7.4 mph 7.4 mph 44 % 0.0 in
14:17 16.9 °F 4.6 °F 1018.8 in NNE 5.6 mph 5.6 mph 44 % 0.0 in
14:22 17.0 °F 4.3 °F 1018.8 in ENE 7.4 mph 7.4 mph 43 % 0.0 in
14:27 17.1 °F 4.4 °F 1018.8 in NE 5.6 mph 5.6 mph 43 % 0.0 in
14:32 17.3 °F 4.6 °F 1018.8 in ENE 5.8 mph 5.8 mph 43 % 0.0 in
14:37 17.4 °F 4.7 °F 1017.8 in NNW 3.7 mph 3.7 mph 43 % 0.0 in
14:42 17.5 °F 4.4 °F 1017.8 in ENE 5.6 mph 5.6 mph 42 % 0.0 in
14:47 17.7 °F 4.6 °F 1017.8 in ENE 3.7 mph 3.7 mph 42 % 0.0 in
14:52 17.8 °F 4.7 °F 1018.8 in NE 5.0 mph 5.0 mph 42 % 0.0 in
14:57 17.9 °F 4.8 °F 1018.8 in NNE 5.6 mph 5.6 mph 42 % 0.0 in
15:02 17.9 °F 4.8 °F 1017.8 in NE 5.6 mph 5.6 mph 42 % 0.0 in
15:07 17.8 °F 4.7 °F 1017.8 in ENE 3.7 mph 3.7 mph 42 % 0.0 in
15:12 17.8 °F 4.7 °F 1017.8 in NNW 5.6 mph 5.6 mph 42 % 0.0 in
15:17 17.5 °F 4.4 °F 1017.8 in North 5.6 mph 5.6 mph 42 % 0.0 in
15:22 17.3 °F 4.3 °F 1018.8 in WNW 2.3 mph 2.3 mph 42 % 0.0 in
15:27 17.2 °F 4.2 °F 1018.8 in North 1.9 mph 1.9 mph 42 % 0.0 in
15:32 17.2 °F 4.2 °F 1018.8 in NE 3.7 mph 3.7 mph 42 % 0.0 in
15:37 17.3 °F 4.3 °F 1017.8 in NNE 2.6 mph 2.6 mph 42 % 0.0 in
15:42 17.4 °F 4.3 °F 1017.8 in NNE 3.7 mph   42 % 0.0 in
15:47 17.5 °F 4.4 °F 1017.8 in NE 1.9 mph   42 % 0.0 in
15:52 17.5 °F 4.1 °F 1017.8 in North 3.2 mph 3.2 mph 41 % 0.0 in
15:57 17.6 °F 4.5 °F 1017.8 in Calm     42 % 0.0 in
16:02 17.5 °F 4.1 °F 1017.8 in NNW 3.7 mph 3.7 mph 41 % 0.0 in
16:07 17.5 °F 4.1 °F 1017.8 in Calm     41 % 0.0 in
16:13 17.6 °F 4.2 °F 1017.8 in Calm     41 % 0.0 in
16:18 17.6 °F 4.5 °F 1018.8 in NNW 1.9 mph 1.9 mph 42 % 0.0 in
16:23 17.6 °F 4.2 °F 1018.8 in Calm     41 % 0.0 in
16:28 17.5 °F 4.1 °F 1018.8 in Calm     41 % 0.0 in
16:33 17.4 °F 4.0 °F 1018.8 in North 1.9 mph   41 % 0.0 in
16:38 17.3 °F 3.9 °F 1018.8 in North 1.4 mph   41 % 0.0 in
16:43 17.1 °F 3.7 °F 1018.8 in Calm     41 % 0.0 in
16:48 17.1 °F 3.7 °F 1018.8 in NW 1.9 mph 1.9 mph 41 % 0.0 in
16:53 17.0 °F 3.7 °F 1018.8 in North 3.7 mph 3.7 mph 41 % 0.0 in
16:58 16.8 °F 3.4 °F 1018.8 in North 2.6 mph 2.6 mph 41 % 0.0 in
17:03 16.7 °F 3.4 °F 1018.8 in Calm     41 % 0.0 in
17:08 16.5 °F 3.2 °F 1018.8 in Calm     41 % 0.0 in
17:13 16.3 °F 3.0 °F 1018.8 in North 1.4 mph   41 % 0.0 in
17:18 16.1 °F 2.8 °F 1018.8 in Calm     41 % 0.0 in
17:23 15.9 °F 2.7 °F 1018.8 in North 1.9 mph   41 % 0.0 in
17:28 15.7 °F 2.4 °F 1018.8 in NNW 1.9 mph   41 % 0.0 in
17:33 15.5 °F 2.3 °F 1018.8 in Calm     41 % 0.0 in
17:38 15.3 °F 2.1 °F 1018.8 in West 2.3 mph 2.3 mph 41 % 0.0 in
17:43 15.3 °F 2.1 °F 1018.8 in Calm     41 % 0.0 in
17:48 15.1 °F 1.6 °F 1018.8 in West 1.9 mph   40 % 0.0 in
17:53 15.1 °F 1.6 °F 1018.8 in West 1.9 mph   40 % 0.0 in
17:58 14.9 °F 1.4 °F 1018.8 in Calm     40 % 0.0 in
18:03 14.7 °F 1.2 °F 1018.8 in West 1.9 mph   40 % 0.0 in
18:13 14.3 °F 0.9 °F 1018.8 in WSW 1.9 mph   40 % 0.0 in
18:18 14.2 °F 0.8 °F 1018.8 in WSW 2.3 mph   40 % 0.0 in
18:23 13.9 °F 0.5 °F 1018.8 in SW 3.9 mph 3.9 mph 40 % 0.0 in
18:25 8.3 °F -2.7 °F 1019.9 in Calm   1.6 mph 46 % 0.0 in
18:28 13.8 °F 0.4 °F 1018.8 in WSW 3.7 mph 3.7 mph 40 % 0.0 in
18:33 13.9 °F 0.5 °F 1018.8 in SSW 1.9 mph   40 % 0.0 in
18:35 8.2 °F -2.8 °F 1019.9 in West 1.6 mph 3.2 mph 46 % 0.0 in
18:38 13.8 °F 0.4 °F 1018.8 in SW 2.3 mph 2.3 mph 40 % 0.0 in
18:43 13.9 °F 0.5 °F 1018.8 in SW 5.0 mph 5.0 mph 40 % 0.0 in
18:45 8.3 °F -2.7 °F 1019.9 in WSW 1.6 mph 3.2 mph 46 % 0.0 in
18:48 14.0 °F 0.2 °F 1018.8 in WSW 3.7 mph 3.7 mph 39 % 0.0 in
18:53 14.0 °F 0.2 °F 1018.8 in West 7.4 mph 7.4 mph 39 % 0.0 in
18:55 8.1 °F -2.6 °F 1018.8 in Calm   3.2 mph 47 % 0.0 in
18:58 13.9 °F 0.5 °F 1018.8 in West 5.6 mph 5.6 mph 40 % 0.0 in
19:03 13.7 °F 0.3 °F 1018.8 in WSW 3.7 mph 3.7 mph 40 % 0.0 in
19:05 7.8 °F -2.8 °F 1018.8 in Calm     47 % 0.0 in
19:08 13.4 °F 0.1 °F 1018.8 in WSW 1.9 mph 1.9 mph 40 % 0.0 in
19:13 13.2 °F -0.4 °F 1018.8 in Calm     39 % 0.0 in
19:15 7.7 °F -2.6 °F 1018.8 in SW 3.2 mph 3.2 mph 48 % 0.0 in
19:18 13.0 °F -0.7 °F 1018.8 in WSW 3.9 mph   39 % 0.0 in
19:23 12.9 °F -0.4 °F 1018.8 in WSW 4.7 mph 4.7 mph 40 % 0.0 in
19:25 7.5 °F -2.8 °F 1018.8 in SW 1.6 mph 3.2 mph 48 % 0.0 in
19:28 12.7 °F -0.6 °F 1018.8 in WSW 3.2 mph 3.2 mph 40 % 0.0 in
19:33 12.7 °F -0.6 °F 1018.8 in WSW 1.9 mph 2.3 mph 40 % 0.0 in
19:35 12.7 °F -0.6 °F 1018.8 in WSW 2.6 mph 2.6 mph 40 % 0.0 in
19:40 12.7 °F -0.6 °F 1018.8 in WSW 3.2 mph 3.2 mph 40 % 0.0 in
19:45 12.6 °F -0.7 °F 1018.8 in WSW 3.2 mph 3.2 mph 40 % 0.0 in
19:50 12.5 °F -0.8 °F 1018.8 in SW 3.7 mph 3.7 mph 40 % 0.0 in
19:55 12.3 °F -0.9 °F 1018.8 in Calm   3.2 mph 40 % 0.0 in
20:00 12.1 °F -1.1 °F 1018.8 in WSW 4.7 mph 4.7 mph 40 % 0.0 in
20:05 12.0 °F -1.2 °F 1018.8 in Calm   4.8 mph 40 % 0.0 in
20:10 11.9 °F -1.3 °F 1018.8 in WSW 3.2 mph 4.8 mph 40 % 0.0 in
20:15 11.9 °F -1.3 °F 1018.8 in WSW 3.9 mph 3.9 mph 40 % 0.0 in
20:20 11.8 °F -1.4 °F 1018.8 in WSW 3.7 mph 3.7 mph 40 % 0.0 in
20:25 11.7 °F -1.1 °F 1018.8 in Calm     41 % 0.0 in
20:30 11.5 °F -1.3 °F 1018.8 in WSW 1.9 mph 1.9 mph 41 % 0.0 in
20:35 11.4 °F -1.4 °F 1018.8 in Calm     41 % 0.0 in
20:40 11.5 °F -1.3 °F 1018.8 in WSW 3.7 mph 3.7 mph 41 % 0.0 in
20:45 11.5 °F -1.3 °F 1018.8 in WSW 2.6 mph 2.6 mph 41 % 0.0 in
20:50 11.3 °F -1.5 °F 1018.8 in Calm     41 % 0.0 in
20:55 11.2 °F -1.6 °F 1018.8 in Calm     41 % 0.0 in
21:00 11.1 °F -1.7 °F 1018.8 in Calm     41 % 0.0 in
21:05 11.0 °F -1.8 °F 1018.8 in Calm     41 % 0.0 in
21:10 11.1 °F -1.7 °F 1018.8 in WSW 1.9 mph 1.9 mph 41 % 0.0 in
21:15 11.1 °F -1.3 °F 1018.8 in SSE 3.7 mph 3.7 mph 42 % 0.0 in
21:20 11.0 °F -1.4 °F 1018.8 in SSE 1.9 mph 1.9 mph 42 % 0.0 in
21:25 11.0 °F -1.8 °F 1018.8 in Calm     41 % 0.0 in
21:30 10.9 °F -1.5 °F 1018.8 in ESE 1.9 mph 1.9 mph 42 % 0.0 in
21:35 10.8 °F -1.6 °F 1018.8 in Calm     42 % 0.0 in
21:40 10.7 °F -1.7 °F 1018.8 in Calm     42 % 0.0 in
21:45 10.8 °F -1.6 °F 1018.8 in Calm     42 % 0.0 in
21:50 10.7 °F -1.7 °F 1018.8 in SW 3.2 mph   42 % 0.0 in
21:55 10.2 °F -2.2 °F 1018.8 in WSW 3.9 mph 3.9 mph 42 % 0.0 in
22:00 9.9 °F -2.1 °F 1018.8 in WSW 3.7 mph 3.7 mph 43 % 0.0 in
22:05 6.2 °F -2.9 °F 1019.9 in WSW 1.6 mph 3.2 mph 52 % 0.0 in
22:10 9.9 °F -2.1 °F 1018.8 in WSW 3.7 mph 3.7 mph 43 % 0.0 in
22:15 9.7 °F -2.3 °F 1018.8 in SW 3.9 mph 3.9 mph 43 % 0.0 in
22:20 9.6 °F -2.4 °F 1018.8 in WSW 3.7 mph 3.7 mph 43 % 0.0 in
22:25 9.5 °F -2.5 °F 1018.8 in WSW 3.2 mph   43 % 0.0 in
22:30 9.6 °F -2.4 °F 1018.8 in WSW 3.7 mph 3.7 mph 43 % 0.0 in
22:35 9.5 °F -2.2 °F 1019.9 in WSW 1.9 mph   44 % 0.0 in
22:40 9.5 °F -2.5 °F 1019.9 in WSW 3.7 mph 3.9 mph 43 % 0.0 in
22:45 9.3 °F -2.3 °F 1019.9 in WSW 3.7 mph 3.7 mph 44 % 0.0 in
22:50 9.0 °F -2.6 °F 1018.8 in West 3.7 mph 3.7 mph 44 % 0.0 in
22:55 9.1 °F -2.6 °F 1018.8 in WSW 3.7 mph 3.7 mph 44 % 0.0 in
23:00 9.2 °F -2.4 °F 1018.8 in WSW 2.3 mph 2.3 mph 44 % 0.0 in
23:05 9.1 °F -2.6 °F 1019.9 in WSW 1.9 mph 1.9 mph 44 % 0.0 in
23:10 9.0 °F -2.6 °F 1019.9 in WSW 1.9 mph   44 % 0.0 in
23:15 9.0 °F -2.6 °F 1019.9 in West 1.9 mph   44 % 0.0 in
23:20 9.1 °F -2.2 °F 1018.8 in WNW 1.9 mph   45 % 0.0 in
23:25 9.1 °F -2.2 °F 1018.8 in Calm     45 % 0.0 in
23:30 9.1 °F -2.2 °F 1018.8 in WNW 3.7 mph 3.7 mph 45 % 0.0 in
23:35 9.1 °F -2.2 °F 1019.9 in WNW 3.2 mph 3.2 mph 45 % 0.0 in
23:40 9.1 °F -2.2 °F 1019.9 in WNW 1.9 mph   45 % 0.0 in
23:45 9.2 °F -2.1 °F 1019.9 in WNW 2.3 mph 2.3 mph 45 % 0.0 in
23:50 9.2 °F -2.1 °F 1019.9 in WNW 3.7 mph 3.7 mph 45 % 0.0 in
23:55 9.1 °F -2.2 °F 1019.9 in WNW 1.9 mph 1.9 mph 45 % 0.0 in
Meteo Sesrovires
Elogis d' Weather Underground - 1.5 mb

Guio original per  Jim McMurry - jmcmurry@mwt.net Adaptat per a la plantilla per  Wim van der Kuil - Leuven-Template.eu

Trobareu la nostra informacio del temps tambe a:

Weather Underground

AWEKAS